createdAt,value
2019-04-06T00:00:13.358Z,71.13
2019-04-06T00:01:09.638Z,74.23
2019-04-06T00:01:53.657Z,65.93
2019-04-06T00:02:35.916Z,72.43
2019-04-06T00:03:11.952Z,69.23
2019-04-06T00:03:47.570Z,73.73
2019-04-06T00:04:23.498Z,74.67
2019-04-06T00:04:59.096Z,74.70
2019-04-06T00:05:34.678Z,70.83
2019-04-06T00:06:10.339Z,69.07
2019-04-06T00:06:46.048Z,70.43
2019-04-06T00:07:21.614Z,75.77
2019-04-06T00:07:57.325Z,68.43
2019-04-06T00:08:32.886Z,71.90
2019-04-06T00:09:08.543Z,73.83
2019-04-06T00:09:44.117Z,63.00
2019-04-06T00:10:19.671Z,66.50
2019-04-06T00:10:55.363Z,71.07
2019-04-06T00:11:30.924Z,73.20
2019-04-06T00:12:06.537Z,71.93
2019-04-06T00:12:43.791Z,78.17
2019-04-06T00:13:19.346Z,72.27
2019-04-06T00:13:55.748Z,66.60
2019-04-06T00:14:31.323Z,65.10
2019-04-06T00:15:07.491Z,66.97
2019-04-06T00:15:43.460Z,73.90
2019-04-06T00:16:19.379Z,70.43
2019-04-06T00:16:55.756Z,61.00
2019-04-06T00:17:31.634Z,64.90
2019-04-06T00:18:07.195Z,71.77
2019-04-06T00:18:43.321Z,77.63
2019-04-06T00:19:19.494Z,72.83
2019-04-06T00:19:55.850Z,75.63
2019-04-06T00:20:31.854Z,75.73
2019-04-06T00:21:08.041Z,76.47
2019-04-06T00:21:44.008Z,72.03
2019-04-06T00:22:20.200Z,71.47
2019-04-06T00:22:56.119Z,68.00
2019-04-06T00:23:31.742Z,58.47
2019-04-06T00:24:07.289Z,72.97
2019-04-06T00:24:42.866Z,65.43
2019-04-06T00:25:18.576Z,70.83
2019-04-06T00:25:54.241Z,67.13
2019-04-06T00:26:29.955Z,73.83
2019-04-06T00:27:05.789Z,68.87
2019-04-06T00:27:41.472Z,76.67
2019-04-06T00:28:17.073Z,72.40
2019-04-06T00:28:52.670Z,75.27
2019-04-06T00:29:28.670Z,70.47
2019-04-06T00:30:05.973Z,67.40
2019-04-06T00:30:51.273Z,75.80
2019-04-06T00:31:49.710Z,71.53
2019-04-06T00:32:32.326Z,73.53
2019-04-06T00:33:10.301Z,70.80
2019-04-06T00:33:45.845Z,68.93
2019-04-06T00:34:21.405Z,69.37
2019-04-06T00:34:57.064Z,76.13
2019-04-06T00:35:33.324Z,75.73
2019-04-06T00:36:08.923Z,72.00
2019-04-06T00:36:44.480Z,74.93
2019-04-06T00:37:20.312Z,74.73
2019-04-06T00:37:56.208Z,78.30
2019-04-06T00:38:33.802Z,77.17
2019-04-06T00:39:09.481Z,61.60
2019-04-06T00:39:47.186Z,63.43
2019-04-06T00:40:23.637Z,73.27
2019-04-06T00:40:59.606Z,74.60
2019-04-06T00:41:36.047Z,73.97
2019-04-06T00:42:15.062Z,73.83
2019-04-06T00:42:51.732Z,70.40
2019-04-06T00:43:29.181Z,67.90
2019-04-06T00:44:05.127Z,73.80
2019-04-06T00:44:40.899Z,66.00
2019-04-06T00:45:16.785Z,74.00
2019-04-06T00:45:52.583Z,76.80
2019-04-06T00:46:28.344Z,70.30
2019-04-06T00:47:04.674Z,68.93
2019-04-06T00:47:43.758Z,64.03
2019-04-06T00:48:20.013Z,76.70
2019-04-06T00:48:55.683Z,80.97
2019-04-06T00:49:31.969Z,73.57
2019-04-06T00:50:07.770Z,73.13
2019-04-06T00:50:43.550Z,79.83
2019-04-06T00:51:19.645Z,74.37
2019-04-06T00:51:55.338Z,75.77
2019-04-06T00:52:31.057Z,76.07
2019-04-06T00:53:06.763Z,76.97
2019-04-06T00:53:42.712Z,75.20
2019-04-06T00:54:18.883Z,73.33
2019-04-06T00:54:54.795Z,79.13
2019-04-06T00:55:30.469Z,70.23
2019-04-06T00:56:06.117Z,68.43
2019-04-06T00:56:42.399Z,76.07
2019-04-06T00:57:18.152Z,71.50
2019-04-06T00:57:54.060Z,70.97
2019-04-06T00:58:30.599Z,69.20
2019-04-06T00:59:08.817Z,73.67
2019-04-06T00:59:47.152Z,65.87
2019-04-06T01:00:25.609Z,74.73
2019-04-06T01:01:02.161Z,70.50
2019-04-06T01:01:38.326Z,71.30
2019-04-06T01:02:14.666Z,74.83
2019-04-06T01:02:50.754Z,65.97
2019-04-06T01:03:26.921Z,68.60
2019-04-06T01:04:06.612Z,73.30
2019-04-06T01:04:43.335Z,65.73
2019-04-06T01:05:20.005Z,70.90
2019-04-06T01:05:56.310Z,68.97
2019-04-06T01:06:32.814Z,62.00
2019-04-06T01:07:09.239Z,72.67
2019-04-06T01:07:45.360Z,69.60
2019-04-06T01:08:25.736Z,61.20
2019-04-06T01:09:02.290Z,72.43
2019-04-06T01:09:40.233Z,72.07
2019-04-06T01:10:17.012Z,76.67
2019-04-06T01:10:53.084Z,67.77
2019-04-06T01:11:35.583Z,67.00
2019-04-06T01:12:12.012Z,74.70
2019-04-06T01:12:49.427Z,72.63
2019-04-06T01:13:28.495Z,73.00
2019-04-06T01:14:04.630Z,73.47
2019-04-06T01:14:40.791Z,77.30
2019-04-06T01:15:17.188Z,66.70
2019-04-06T01:15:53.584Z,72.47
2019-04-06T01:16:31.364Z,66.90
2019-04-06T01:17:07.815Z,73.27
2019-04-06T01:17:44.002Z,72.97
2019-04-06T01:18:20.251Z,66.37
2019-04-06T01:18:56.169Z,70.03
2019-04-06T01:19:32.160Z,65.50
2019-04-06T01:20:08.364Z,66.50
2019-04-06T01:20:44.464Z,69.83
2019-04-06T01:21:21.165Z,72.57
2019-04-06T01:21:57.441Z,65.87
2019-04-06T01:22:33.355Z,65.93
2019-04-06T01:23:09.278Z,61.10
2019-04-06T01:23:45.601Z,75.60
2019-04-06T01:24:21.787Z,68.70
2019-04-06T01:24:58.078Z,66.70
2019-04-06T01:25:34.081Z,79.77
2019-04-06T01:26:10.301Z,72.87
2019-04-06T01:26:46.488Z,67.93
2019-04-06T01:27:22.736Z,74.37
2019-04-06T01:27:58.983Z,74.97
2019-04-06T01:28:35.610Z,79.17
2019-04-06T01:29:11.763Z,65.83
2019-04-06T01:29:48.759Z,65.97
2019-04-06T01:30:25.057Z,76.60
2019-04-06T01:31:01.186Z,74.87
2019-04-06T01:31:36.951Z,79.17
2019-04-06T01:32:12.634Z,76.90
2019-04-06T01:32:48.264Z,71.97
2019-04-06T01:33:24.143Z,75.80
2019-04-06T01:34:01.179Z,70.03
2019-04-06T01:34:36.772Z,74.47
2019-04-06T01:35:12.354Z,78.57
2019-04-06T01:35:47.888Z,77.13
2019-04-06T01:36:23.503Z,69.77
2019-04-06T01:36:59.166Z,78.13
2019-04-06T01:37:34.827Z,71.77
2019-04-06T01:38:10.388Z,70.17
2019-04-06T01:38:46.018Z,69.83
2019-04-06T01:39:21.926Z,67.87
2019-04-06T01:39:57.577Z,76.07
2019-04-06T01:40:33.119Z,74.37
2019-04-06T01:41:08.842Z,74.77
2019-04-06T01:41:44.420Z,72.00
2019-04-06T01:42:19.943Z,72.90
2019-04-06T01:42:55.642Z,69.63
2019-04-06T01:43:31.248Z,68.57
2019-04-06T01:44:06.897Z,72.03
2019-04-06T01:44:42.429Z,81.00
2019-04-06T01:45:18.266Z,76.43
2019-04-06T01:45:53.940Z,74.20
2019-04-06T01:46:29.842Z,72.03
2019-04-06T01:47:05.438Z,76.83
2019-04-06T01:47:41.005Z,78.20
2019-04-06T01:48:16.816Z,75.20
2019-04-06T01:48:52.494Z,72.30
2019-04-06T01:49:31.457Z,59.57
2019-04-06T01:50:07.593Z,72.80
2019-04-06T01:50:43.839Z,69.03
2019-04-06T01:51:20.238Z,71.93
2019-04-06T01:51:56.558Z,79.40
2019-04-06T01:52:32.481Z,69.13
2019-04-06T01:53:08.649Z,83.57
2019-04-06T01:53:44.628Z,73.03
2019-04-06T01:54:20.612Z,70.97
2019-04-06T01:54:59.016Z,72.67
2019-04-06T01:55:35.674Z,74.33
2019-04-06T01:56:18.357Z,76.43
2019-04-06T01:56:49.639Z,72.10
2019-04-06T01:57:26.301Z,79.10
2019-04-06T01:58:02.648Z,74.40
2019-04-06T01:58:38.895Z,65.50
2019-04-06T01:59:14.969Z,69.73
2019-04-06T01:59:51.257Z,73.07
2019-04-06T02:00:26.918Z,70.13
2019-04-06T02:01:21.552Z,65.93
2019-04-06T02:02:28.313Z,72.50
2019-04-06T02:03:04.121Z,71.67
2019-04-06T02:03:39.691Z,83.60
2019-04-06T02:04:15.271Z,77.13
2019-04-06T02:04:50.814Z,81.83
2019-04-06T02:05:26.397Z,74.90
2019-04-06T02:06:02.354Z,73.20
2019-04-06T02:06:38.286Z,70.80
2019-04-06T02:07:13.892Z,72.13
2019-04-06T02:07:50.216Z,71.90
2019-04-06T02:08:25.895Z,72.27
2019-04-06T02:09:01.548Z,76.23
2019-04-06T02:09:38.893Z,63.00
2019-04-06T02:10:14.492Z,67.60
2019-04-06T02:10:50.032Z,69.87
2019-04-06T02:11:25.634Z,67.37
2019-04-06T02:12:02.383Z,62.87
2019-04-06T02:12:37.943Z,58.07
2019-04-06T02:13:13.556Z,66.03
2019-04-06T02:13:49.400Z,57.97
2019-04-06T02:14:25.160Z,68.70
2019-04-06T02:15:00.807Z,71.27
2019-04-06T02:15:36.479Z,69.70
2019-04-06T02:16:12.040Z,65.80
2019-04-06T02:16:47.566Z,67.50
2019-04-06T02:17:23.087Z,64.63
2019-04-06T02:17:58.796Z,61.00
2019-04-06T02:18:34.430Z,59.20
2019-04-06T02:19:10.024Z,74.10
2019-04-06T02:19:45.631Z,70.13
2019-04-06T02:20:21.196Z,66.30
2019-04-06T02:20:57.100Z,65.30
2019-04-06T02:21:32.691Z,73.17
2019-04-06T02:22:08.316Z,70.73
2019-04-06T02:22:43.879Z,73.37
2019-04-06T02:23:19.459Z,73.70
2019-04-06T02:23:56.215Z,74.87
2019-04-06T02:24:31.870Z,76.33
2019-04-06T02:25:07.888Z,70.57
2019-04-06T02:25:46.072Z,72.00
2019-04-06T02:26:30.264Z,77.30
2019-04-06T02:26:59.104Z,78.83
2019-04-06T02:27:34.635Z,70.80
2019-04-06T02:28:10.252Z,73.43
2019-04-06T02:28:45.824Z,66.97
2019-04-06T02:29:21.359Z,72.97
2019-04-06T02:30:31.084Z,73.90
2019-04-06T02:31:10.346Z,66.77
2019-04-06T02:32:17.391Z,67.70
2019-04-06T02:33:14.713Z,68.23
2019-04-06T02:34:12.358Z,66.00
2019-04-06T02:35:06.004Z,73.47
2019-04-06T02:36:19.235Z,63.57
2019-04-06T02:37:11.318Z,76.10
2019-04-06T02:37:59.680Z,65.77
2019-04-06T02:38:45.728Z,77.67
2019-04-06T02:39:47.023Z,72.67
2019-04-06T02:40:41.745Z,72.67
2019-04-06T02:41:42.821Z,76.57
2019-04-06T02:42:36.354Z,76.20
2019-04-06T02:43:15.678Z,74.47
2019-04-06T02:43:51.354Z,72.57
2019-04-06T02:44:27.267Z,79.23
2019-04-06T02:45:02.961Z,75.93
2019-04-06T02:45:39.059Z,84.60
2019-04-06T02:46:14.719Z,80.77
2019-04-06T02:46:51.269Z,85.33
2019-04-06T02:47:26.903Z,73.37
2019-04-06T02:48:02.567Z,78.93
2019-04-06T02:48:38.194Z,73.60
2019-04-06T02:49:13.774Z,79.23
2019-04-06T02:49:49.327Z,76.60
2019-04-06T02:50:25.192Z,67.77
2019-04-06T02:51:00.766Z,69.20
2019-04-06T02:51:36.472Z,74.77
2019-04-06T02:52:12.132Z,76.20
2019-04-06T02:52:48.089Z,73.20
2019-04-06T02:53:24.608Z,76.13
2019-04-06T02:54:00.154Z,63.50
2019-04-06T02:54:35.763Z,69.50
2019-04-06T02:55:11.728Z,74.40
2019-04-06T02:55:47.443Z,73.40
2019-04-06T02:56:23.000Z,77.93
2019-04-06T02:56:58.537Z,77.43
2019-04-06T02:57:34.088Z,75.60
2019-04-06T02:58:09.906Z,76.13
2019-04-06T02:58:45.839Z,64.27
2019-04-06T02:59:21.444Z,74.20
2019-04-06T02:59:56.972Z,82.10
2019-04-06T03:00:32.597Z,74.73
2019-04-06T03:01:08.424Z,67.83
2019-04-06T03:01:44.023Z,72.03
2019-04-06T03:02:20.507Z,74.40
2019-04-06T03:02:56.097Z,75.90
2019-04-06T03:03:31.628Z,63.00
2019-04-06T03:04:07.424Z,73.70
2019-04-06T03:04:43.091Z,75.07
2019-04-06T03:05:18.649Z,73.67
2019-04-06T03:05:54.522Z,75.80
2019-04-06T03:06:30.086Z,78.40
2019-04-06T03:07:05.868Z,72.90
2019-04-06T03:07:41.470Z,69.50
2019-04-06T03:08:17.157Z,70.43
2019-04-06T03:08:52.754Z,74.00
2019-04-06T03:09:28.320Z,72.37
2019-04-06T03:10:04.036Z,72.37
2019-04-06T03:10:39.604Z,82.07
2019-04-06T03:11:15.678Z,79.80
2019-04-06T03:11:51.964Z,75.53
2019-04-06T03:12:28.211Z,72.43
2019-04-06T03:13:03.872Z,70.33
2019-04-06T03:13:39.435Z,73.87
2019-04-06T03:14:15.002Z,69.77
2019-04-06T03:14:50.824Z,66.83
2019-04-06T03:15:26.588Z,74.23
2019-04-06T03:16:02.224Z,68.10
2019-04-06T03:16:37.760Z,69.87
2019-04-06T03:17:13.321Z,69.20
2019-04-06T03:17:48.945Z,68.00
2019-04-06T03:18:24.804Z,67.37
2019-04-06T03:19:00.392Z,66.23
2019-04-06T03:19:35.965Z,75.73
2019-04-06T03:20:11.508Z,64.67
2019-04-06T03:20:47.328Z,77.43
2019-04-06T03:21:23.341Z,73.53
2019-04-06T03:21:58.922Z,72.80
2019-04-06T03:22:34.527Z,79.40
2019-04-06T03:23:10.423Z,70.13
2019-04-06T03:23:51.525Z,72.70
2019-04-06T03:24:23.254Z,74.03
2019-04-06T03:24:59.152Z,71.80
2019-04-06T03:25:34.778Z,76.07
2019-04-06T03:26:10.365Z,69.80
2019-04-06T03:26:59.903Z,72.90
2019-04-06T03:27:23.672Z,69.17
2019-04-06T03:27:59.535Z,67.77
2019-04-06T03:28:35.239Z,64.60
2019-04-06T03:29:11.164Z,61.57
2019-04-06T03:29:57.671Z,62.67
2019-04-06T03:30:24.041Z,69.93
2019-04-06T03:30:59.846Z,67.80
2019-04-06T03:31:37.206Z,77.87
2019-04-06T03:32:12.770Z,76.27
2019-04-06T03:32:48.337Z,71.63
2019-04-06T03:33:23.979Z,79.83
2019-04-06T03:33:59.744Z,68.37
2019-04-06T03:34:35.731Z,75.23
2019-04-06T03:35:11.431Z,66.93
2019-04-06T03:35:49.386Z,62.50
2019-04-06T03:36:24.307Z,63.77
2019-04-06T03:37:00.165Z,62.27
2019-04-06T03:37:35.713Z,74.17
2019-04-06T03:38:11.547Z,77.40
2019-04-06T03:38:47.190Z,70.20
2019-04-06T03:39:22.836Z,66.23
2019-04-06T03:39:58.380Z,69.17
2019-04-06T03:40:34.228Z,67.70
2019-04-06T03:41:09.806Z,58.23
2019-04-06T03:41:45.353Z,62.53
2019-04-06T03:42:20.904Z,62.27
2019-04-06T03:42:56.482Z,68.60
2019-04-06T03:43:32.190Z,69.47
2019-04-06T03:44:07.915Z,71.53
2019-04-06T03:44:43.468Z,61.80
2019-04-06T03:45:19.291Z,69.10
2019-04-06T03:45:54.855Z,62.87
2019-04-06T03:46:30.448Z,65.20
2019-04-06T03:47:06.028Z,58.10
2019-04-06T03:47:41.785Z,59.00
2019-04-06T03:48:17.345Z,62.90
2019-04-06T03:48:52.932Z,65.33
2019-04-06T03:49:28.536Z,64.30
2019-04-06T03:50:04.783Z,69.20
2019-04-06T03:50:40.404Z,62.10
2019-04-06T03:51:15.968Z,63.10
2019-04-06T03:51:51.754Z,58.57
2019-04-06T03:52:27.388Z,70.57
2019-04-06T03:53:02.957Z,64.73
2019-04-06T03:53:38.547Z,69.63
2019-04-06T03:54:14.197Z,67.20
2019-04-06T03:54:49.737Z,65.60
2019-04-06T03:55:25.292Z,63.00
2019-04-06T03:56:00.868Z,69.53
2019-04-06T03:56:36.466Z,70.57
2019-04-06T03:57:15.813Z,70.73
2019-04-06T03:57:49.426Z,69.50
2019-04-06T03:58:25.238Z,70.77
2019-04-06T03:59:00.928Z,73.40
2019-04-06T03:59:36.557Z,74.07
2019-04-06T04:00:12.164Z,75.70
2019-04-06T04:00:48.256Z,74.37
2019-04-06T04:01:24.303Z,68.27
2019-04-06T04:02:00.137Z,70.60
2019-04-06T04:02:35.707Z,68.23
2019-04-06T04:03:11.474Z,72.93
2019-04-06T04:03:47.045Z,68.90
2019-04-06T04:04:23.124Z,77.40
2019-04-06T04:04:58.726Z,73.60
2019-04-06T04:05:34.308Z,73.77
2019-04-06T04:06:10.134Z,65.53
2019-04-06T04:06:45.927Z,77.40
2019-04-06T04:07:21.535Z,68.70
2019-04-06T04:07:57.778Z,72.67
2019-04-06T04:08:33.429Z,71.03
2019-04-06T04:09:09.307Z,74.70
2019-04-06T04:09:45.513Z,65.23
2019-04-06T04:10:34.980Z,65.77
2019-04-06T04:11:10.612Z,67.87
2019-04-06T04:11:46.173Z,70.33
2019-04-06T04:12:21.737Z,73.87
2019-04-06T04:12:57.704Z,69.90
2019-04-06T04:13:33.270Z,81.67
2019-04-06T04:14:09.066Z,78.23
2019-04-06T04:14:44.673Z,76.83
2019-04-06T04:15:20.635Z,71.20
2019-04-06T04:15:57.452Z,78.17
2019-04-06T04:16:33.484Z,72.17
2019-04-06T04:17:09.031Z,64.63
2019-04-06T04:17:44.665Z,73.57
2019-04-06T04:18:20.304Z,62.83
2019-04-06T04:18:56.142Z,73.17
2019-04-06T04:19:31.970Z,73.60
2019-04-06T04:20:07.674Z,70.97
2019-04-06T04:20:43.378Z,67.23
2019-04-06T04:21:19.016Z,70.83
2019-04-06T04:21:54.797Z,69.43
2019-04-06T04:22:30.690Z,64.63
2019-04-06T04:23:06.452Z,65.33
2019-04-06T04:23:42.092Z,66.97
2019-04-06T04:24:17.668Z,66.97
2019-04-06T04:24:53.219Z,66.73
2019-04-06T04:25:28.777Z,61.93
2019-04-06T04:26:04.335Z,57.87
2019-04-06T04:26:39.885Z,62.53
2019-04-06T04:27:27.657Z,63.93
2019-04-06T04:28:01.766Z,62.60
2019-04-06T04:28:38.244Z,73.17
2019-04-06T04:29:14.341Z,73.70
2019-04-06T04:29:51.415Z,75.67
2019-04-06T04:30:32.886Z,65.73
2019-04-06T04:31:04.408Z,65.97
2019-04-06T04:31:39.981Z,63.83
2019-04-06T04:32:15.614Z,62.37
2019-04-06T04:32:51.253Z,59.30
2019-04-06T04:33:26.816Z,64.67
2019-04-06T04:34:02.447Z,64.77
2019-04-06T04:34:38.077Z,58.40
2019-04-06T04:35:13.968Z,68.20
2019-04-06T04:35:49.665Z,73.70
2019-04-06T04:36:25.212Z,67.23
2019-04-06T04:37:00.827Z,70.20
2019-04-06T04:37:36.411Z,77.10
2019-04-06T04:38:12.230Z,71.50
2019-04-06T04:38:47.893Z,71.00
2019-04-06T04:39:23.541Z,77.60
2019-04-06T04:39:59.438Z,71.90
2019-04-06T04:40:35.089Z,78.10
2019-04-06T04:41:11.012Z,71.10
2019-04-06T04:41:46.573Z,68.30
2019-04-06T04:42:22.127Z,70.17
2019-04-06T04:42:57.783Z,77.90
2019-04-06T04:43:33.340Z,67.77
2019-04-06T04:44:08.966Z,77.27
2019-04-06T04:44:44.836Z,69.17
2019-04-06T04:45:20.471Z,78.00
2019-04-06T04:45:56.433Z,78.30
2019-04-06T04:46:33.212Z,69.53
2019-04-06T04:47:08.841Z,70.03
2019-04-06T04:47:44.468Z,80.80
2019-04-06T04:48:20.018Z,76.83
2019-04-06T04:48:58.789Z,80.77
2019-04-06T04:49:34.372Z,88.20
2019-04-06T04:50:10.391Z,75.37
2019-04-06T04:50:46.295Z,76.77
2019-04-06T04:51:21.849Z,75.93
2019-04-06T04:51:57.554Z,81.67
2019-04-06T04:52:33.109Z,83.60
2019-04-06T04:53:08.948Z,88.43
2019-04-06T04:53:44.572Z,66.37
2019-04-06T04:54:20.223Z,65.63
2019-04-06T04:54:55.971Z,68.23
2019-04-06T04:55:31.560Z,70.87
2019-04-06T04:56:07.105Z,78.13
2019-04-06T04:56:42.705Z,75.40
2019-04-06T04:57:18.337Z,83.27
2019-04-06T04:57:53.920Z,75.63
2019-04-06T04:58:29.531Z,73.57
2019-04-06T04:59:05.143Z,77.33
2019-04-06T04:59:40.750Z,85.57
2019-04-06T05:00:16.628Z,93.87
2019-04-06T05:00:52.185Z,90.70
2019-04-06T05:01:27.831Z,86.50
2019-04-06T05:02:03.388Z,88.80
2019-04-06T05:02:39.013Z,82.87
2019-04-06T05:03:14.565Z,83.53
2019-04-06T05:03:50.206Z,93.60
2019-04-06T05:04:25.739Z,86.07
2019-04-06T05:05:02.274Z,86.23
2019-04-06T05:05:37.912Z,87.77
2019-04-06T05:06:13.535Z,84.27
2019-04-06T05:06:49.149Z,87.47
2019-04-06T05:07:24.707Z,89.30
2019-04-06T05:08:00.293Z,86.87
2019-04-06T05:08:35.875Z,80.53
2019-04-06T05:09:11.533Z,82.90
2019-04-06T05:09:47.076Z,76.43
2019-04-06T05:10:22.792Z,74.77
2019-04-06T05:10:58.338Z,79.53
2019-04-06T05:11:34.100Z,80.75
2019-04-06T05:12:09.625Z,85.27
2019-04-06T05:13:04.596Z,82.93
2019-04-06T05:13:41.276Z,86.60
2019-04-06T05:14:53.234Z,77.90
2019-04-06T05:15:46.512Z,82.97
2019-04-06T05:16:22.422Z,84.43
2019-04-06T05:16:58.279Z,69.10
2019-04-06T05:17:33.803Z,75.33
2019-04-06T05:18:09.336Z,73.67
2019-04-06T05:18:44.855Z,71.33
2019-04-06T05:19:20.404Z,83.57
2019-04-06T05:19:55.939Z,69.53
2019-04-06T05:20:31.434Z,80.93
2019-04-06T05:21:07.045Z,68.30
2019-04-06T05:21:42.982Z,82.60
2019-04-06T05:22:18.509Z,80.40
2019-04-06T05:22:54.037Z,88.40
2019-04-06T05:23:29.562Z,83.03
2019-04-06T05:24:05.358Z,68.60
2019-04-06T05:24:40.945Z,72.57
2019-04-06T05:25:16.483Z,70.50
2019-04-06T05:25:52.148Z,96.63
2019-04-06T05:26:37.142Z,85.83
2019-04-06T05:27:05.275Z,82.63
2019-04-06T05:27:51.221Z,90.83
2019-04-06T05:28:18.318Z,80.97
2019-04-06T05:28:53.843Z,84.50
2019-04-06T05:29:29.351Z,86.17
2019-04-06T05:30:06.545Z,88.23
2019-04-06T05:30:42.189Z,91.20
2019-04-06T05:31:17.758Z,81.17
2019-04-06T05:31:53.274Z,79.20
2019-04-06T05:32:28.784Z,88.53
2019-04-06T05:33:04.311Z,94.90
2019-04-06T05:33:40.293Z,90.87
2019-04-06T05:34:15.882Z,85.77
2019-04-06T05:34:51.411Z,94.00
2019-04-06T05:35:26.917Z,90.30
2019-04-06T05:36:02.465Z,89.13
2019-04-06T05:36:38.123Z,86.87
2019-04-06T05:37:13.972Z,96.80
2019-04-06T05:37:49.573Z,91.07
2019-04-06T05:38:25.200Z,93.00
2019-04-06T05:39:00.827Z,93.17
2019-04-06T05:39:36.671Z,90.57
2019-04-06T05:40:12.267Z,83.30
2019-04-06T05:40:47.789Z,78.77
2019-04-06T05:41:24.615Z,85.07
2019-04-06T05:42:00.114Z,91.50
2019-04-06T05:42:35.755Z,92.37
2019-04-06T05:43:11.319Z,92.33
2019-04-06T05:43:47.225Z,89.17
2019-04-06T05:44:22.749Z,91.90
2019-04-06T05:44:58.276Z,90.77
2019-04-06T05:45:33.862Z,85.00
2019-04-06T05:46:09.382Z,100.37
2019-04-06T05:46:44.887Z,96.67
2019-04-06T05:47:20.403Z,88.67
2019-04-06T05:47:55.908Z,96.23
2019-04-06T05:48:31.414Z,81.80
2019-04-06T05:49:06.955Z,91.70
2019-04-06T05:49:42.552Z,95.10
2019-04-06T05:50:18.150Z,97.77
2019-04-06T05:50:53.988Z,92.13
2019-04-06T05:51:29.659Z,86.93
2019-04-06T05:52:05.225Z,96.10
2019-04-06T05:52:40.763Z,87.77
2019-04-06T05:53:16.277Z,85.27
2019-04-06T05:53:52.036Z,72.87
2019-04-06T05:54:27.904Z,83.50
2019-04-06T05:55:03.489Z,79.53
2019-04-06T05:55:39.027Z,90.27
2019-04-06T05:56:15.163Z,77.77
2019-04-06T05:56:50.671Z,77.00
2019-04-06T05:57:26.501Z,77.87
2019-04-06T05:58:04.421Z,75.87
2019-04-06T05:58:40.666Z,85.30
2019-04-06T05:59:16.894Z,75.37
2019-04-06T05:59:52.427Z,86.93
2019-04-06T06:00:28.003Z,86.33
2019-04-06T06:01:04.056Z,87.93
2019-04-06T06:01:41.080Z,86.53
2019-04-06T06:02:16.608Z,76.63
2019-04-06T06:02:52.154Z,78.70
2019-04-06T06:03:27.901Z,87.53
2019-04-06T06:04:03.467Z,84.27
2019-04-06T06:04:40.577Z,77.80
2019-04-06T06:05:16.772Z,81.57
2019-04-06T06:05:52.336Z,78.53
2019-04-06T06:06:27.848Z,72.27
2019-04-06T06:07:03.380Z,86.57
2019-04-06T06:07:38.996Z,81.10
2019-04-06T06:08:14.514Z,77.17
2019-04-06T06:08:50.347Z,87.30
2019-04-06T06:09:25.884Z,77.53
2019-04-06T06:10:01.553Z,78.10
2019-04-06T06:10:38.606Z,75.03
2019-04-06T06:11:14.328Z,79.13
2019-04-06T06:11:49.868Z,70.67
2019-04-06T06:12:25.752Z,84.77
2019-04-06T06:13:01.275Z,85.60
2019-04-06T06:13:39.116Z,83.47
2019-04-06T06:14:14.029Z,83.60
2019-04-06T06:14:49.557Z,78.70
2019-04-06T06:15:25.110Z,73.70
2019-04-06T06:16:00.869Z,83.63
2019-04-06T06:16:36.407Z,78.70
2019-04-06T06:17:14.277Z,76.57
2019-04-06T06:17:49.647Z,81.07
2019-04-06T06:18:27.132Z,72.03
2019-04-06T06:19:02.525Z,75.10
2019-04-06T06:19:38.106Z,83.23
2019-04-06T06:20:13.864Z,79.93
2019-04-06T06:20:49.447Z,79.97
2019-04-06T06:21:24.958Z,68.70
2019-04-06T06:22:00.489Z,68.67
2019-04-06T06:22:36.011Z,69.77
2019-04-06T06:23:11.550Z,69.80
2019-04-06T06:23:47.071Z,74.83
2019-04-06T06:24:22.705Z,75.77
2019-04-06T06:24:58.348Z,70.90
2019-04-06T06:25:33.924Z,63.60
2019-04-06T06:26:09.440Z,70.57
2019-04-06T06:26:44.943Z,64.63
2019-04-06T06:27:22.733Z,64.97
2019-04-06T06:27:58.084Z,70.77
2019-04-06T06:28:33.816Z,71.73
2019-04-06T06:29:09.746Z,80.13
2019-04-06T06:29:45.492Z,75.30
2019-04-06T06:30:21.364Z,86.20
2019-04-06T06:30:56.878Z,75.37
2019-04-06T06:31:32.680Z,72.77
2019-04-06T06:32:08.523Z,74.73
2019-04-06T06:32:44.050Z,68.03
2019-04-06T06:33:20.111Z,72.60
2019-04-06T06:33:55.648Z,68.77
2019-04-06T06:34:31.258Z,63.87
2019-04-06T06:35:06.817Z,69.07
2019-04-06T06:35:42.336Z,80.40
2019-04-06T06:36:17.851Z,78.60
2019-04-06T06:36:53.386Z,68.27
2019-04-06T06:37:28.905Z,65.10
2019-04-06T06:38:04.529Z,81.47
2019-04-06T06:38:40.383Z,71.90
2019-04-06T06:39:15.873Z,82.97
2019-04-06T06:39:51.386Z,78.40
2019-04-06T06:40:26.923Z,79.43
2019-04-06T06:41:02.555Z,73.77
2019-04-06T06:41:38.077Z,69.23
2019-04-06T06:42:13.672Z,67.43
2019-04-06T06:42:49.454Z,67.03
2019-04-06T06:43:25.021Z,71.57
2019-04-06T06:44:00.535Z,72.57
2019-04-06T06:44:36.091Z,68.10
2019-04-06T06:45:11.959Z,69.63
2019-04-06T06:45:48.151Z,70.90
2019-04-06T06:46:23.662Z,76.77
2019-04-06T06:46:59.208Z,64.97
2019-04-06T06:47:34.935Z,69.87
2019-04-06T06:48:10.471Z,68.17
2019-04-06T06:48:46.169Z,66.87
2019-04-06T06:49:21.805Z,67.33
2019-04-06T06:49:57.330Z,69.90
2019-04-06T06:50:34.579Z,68.90
2019-04-06T06:51:10.335Z,72.07
2019-04-06T06:51:46.078Z,75.97
2019-04-06T06:52:21.928Z,71.67
2019-04-06T06:52:57.438Z,76.13
2019-04-06T06:53:32.960Z,73.17
2019-04-06T06:54:08.675Z,72.60
2019-04-06T06:54:44.348Z,65.37
2019-04-06T06:55:19.936Z,68.73
2019-04-06T06:55:55.555Z,76.33
2019-04-06T06:56:31.156Z,75.43
2019-04-06T06:57:07.069Z,84.13
2019-04-06T06:57:42.854Z,67.33
2019-04-06T06:58:25.373Z,63.57
2019-04-06T06:58:55.743Z,68.23
2019-04-06T06:59:31.279Z,73.37
2019-04-06T07:00:07.119Z,69.60
2019-04-06T07:00:43.317Z,69.17
2019-04-06T07:01:18.834Z,69.03
2019-04-06T07:01:54.637Z,77.10
2019-04-06T07:02:30.196Z,75.70
2019-04-06T07:03:05.730Z,73.97
2019-04-06T07:03:41.230Z,75.57
2019-04-06T07:04:17.856Z,72.20
2019-04-06T07:04:53.472Z,79.23
2019-04-06T07:05:29.275Z,80.37
2019-04-06T07:06:05.144Z,74.80
2019-04-06T07:06:40.917Z,73.27
2019-04-06T07:07:17.550Z,79.53
2019-04-06T07:07:53.074Z,70.03
2019-04-06T07:08:29.396Z,69.63
2019-04-06T07:09:06.871Z,75.47
2019-04-06T07:09:42.395Z,73.10
2019-04-06T07:10:18.005Z,75.50
2019-04-06T07:10:53.536Z,74.80
2019-04-06T07:11:29.052Z,72.03
2019-04-06T07:12:04.658Z,70.93
2019-04-06T07:12:40.499Z,67.87
2019-04-06T07:13:17.592Z,66.40
2019-04-06T07:13:53.292Z,67.80
2019-04-06T07:14:28.814Z,70.27
2019-04-06T07:15:05.511Z,75.20
2019-04-06T07:15:43.199Z,79.43
2019-04-06T07:16:18.952Z,73.87
2019-04-06T07:16:54.673Z,78.27
2019-04-06T07:17:30.325Z,71.03
2019-04-06T07:18:05.970Z,80.73
2019-04-06T07:18:41.580Z,64.83
2019-04-06T07:19:20.213Z,78.43
2019-04-06T07:19:56.525Z,67.80
2019-04-06T07:20:32.623Z,72.40
2019-04-06T07:21:08.314Z,75.70
2019-04-06T07:21:44.207Z,76.50
2019-04-06T07:22:19.950Z,75.43
2019-04-06T07:22:55.631Z,73.40
2019-04-06T07:23:31.141Z,72.67
2019-04-06T07:24:07.065Z,71.47
2019-04-06T07:24:42.714Z,63.03
2019-04-06T07:25:18.248Z,69.97
2019-04-06T07:25:58.348Z,74.03
2019-04-06T07:26:31.284Z,76.90
2019-04-06T07:27:07.000Z,77.67
2019-04-06T07:27:43.705Z,71.93
2019-04-06T07:28:20.212Z,69.60
2019-04-06T07:28:55.736Z,72.83
2019-04-06T07:29:31.285Z,86.30
2019-04-06T07:30:06.957Z,79.47
2019-04-06T07:30:42.547Z,70.73
2019-04-06T07:31:18.086Z,64.67
2019-04-06T07:31:53.626Z,68.13
2019-04-06T07:32:29.361Z,79.60
2019-04-06T07:33:04.921Z,74.03
2019-04-06T07:33:41.071Z,74.63
2019-04-06T07:34:16.678Z,78.17
2019-04-06T07:34:52.202Z,76.50
2019-04-06T07:35:27.719Z,70.10
2019-04-06T07:36:03.283Z,72.37
2019-04-06T07:36:38.827Z,78.50
2019-04-06T07:37:14.921Z,85.53
2019-04-06T07:37:50.448Z,79.83
2019-04-06T07:38:26.087Z,73.63
2019-04-06T07:39:01.661Z,80.60
2019-04-06T07:39:38.491Z,82.33
2019-04-06T07:40:14.416Z,80.20
2019-04-06T07:40:49.980Z,73.47
2019-04-06T07:41:25.503Z,74.83
2019-04-06T07:42:01.336Z,82.73
2019-04-06T07:42:37.859Z,76.87
2019-04-06T07:43:13.370Z,82.63
2019-04-06T07:43:49.213Z,78.43
2019-04-06T07:44:24.956Z,77.37
2019-04-06T07:45:00.480Z,81.77
2019-04-06T07:45:36.074Z,81.30
2019-04-06T07:46:11.929Z,80.50
2019-04-06T07:46:47.449Z,66.90
2019-04-06T07:47:23.113Z,71.47
2019-04-06T07:47:58.630Z,72.70
2019-04-06T07:48:34.418Z,68.87
2019-04-06T07:49:10.643Z,71.20
2019-04-06T07:49:46.433Z,71.10
2019-04-06T07:50:23.495Z,67.30
2019-04-06T07:50:59.348Z,70.60